Time,TemperatureF,DewpointF,PressureIn,WindDirection,WindDirectionDegrees,WindSpeedMPH,WindSpeedGustMPH,Humidity,HourlyPrecipIn,Conditions,Clouds,dailyrainin,SolarRadiationWatts/m^2,SoftwareType,DateUTC
2013-03-09 00:14:00,27.8,24.0,30.34,SE,145,1.0,2.0,87,0.00,,,0.00,0,weatherlink.com 1.10,2013-03-09 06:14:00,
2013-03-09 00:29:00,27.6,25.0,30.34,SE,145,0.0,1.0,88,0.00,,,0.00,0,weatherlink.com 1.10,2013-03-09 06:29:00,
2013-03-09 00:44:00,27.7,25.0,30.33,SE,145,0.0,2.0,88,0.00,,,0.00,0,weatherlink.com 1.10,2013-03-09 06:44:00,
2013-03-09 00:59:00,27.8,24.0,30.33,SE,145,1.0,2.0,87,0.00,,,0.00,0,weatherlink.com 1.10,2013-03-09 06:59:00,
2013-03-09 01:14:00,28.3,25.0,30.34,SE,143,0.0,3.0,87,0.00,,,0.00,0,weatherlink.com 1.10,2013-03-09 07:14:00,
2013-03-09 01:29:00,28.5,25.0,30.33,SE,143,0.0,2.0,86,0.00,,,0.00,0,weatherlink.com 1.10,2013-03-09 07:29:00,
2013-03-09 01:44:00,28.6,25.0,30.32,SE,143,0.0,2.0,86,0.00,,,0.00,0,weatherlink.com 1.10,2013-03-09 07:44:00,
2013-03-09 01:59:00,28.7,25.0,30.30,SE,142,0.0,3.0,85,0.00,,,0.00,0,weatherlink.com 1.10,2013-03-09 07:59:00,
2013-03-09 02:14:00,28.9,25.0,30.30,SE,142,1.0,3.0,85,0.00,,,0.00,0,weatherlink.com 1.10,2013-03-09 08:14:00,
2013-03-09 02:29:00,28.9,25.0,30.29,SE,142,1.0,2.0,85,0.00,,,0.00,0,weatherlink.com 1.10,2013-03-09 08:29:00,
2013-03-09 02:44:00,29.1,25.0,30.28,SSE,150,1.0,3.0,85,0.00,,,0.00,0,weatherlink.com 1.10,2013-03-09 08:44:00,
2013-03-09 02:59:00,29.6,26.0,30.28,SE,144,2.0,3.0,85,0.00,,,0.00,0,weatherlink.com 1.10,2013-03-09 08:59:00,
2013-03-09 03:15:00,30.1,26.0,30.27,SE,143,1.0,3.0,84,0.00,,,0.00,0,weatherlink.com 1.10,2013-03-09 09:15:00,
2013-03-09 03:30:00,30.2,26.0,30.26,SE,142,0.0,4.0,84,0.00,,,0.00,0,weatherlink.com 1.10,2013-03-09 09:30:00,
2013-03-09 03:45:00,30.4,26.0,30.25,SE,143,1.0,3.0,84,0.00,,,0.00,0,weatherlink.com 1.10,2013-03-09 09:45:00,
2013-03-09 04:00:00,30.7,26.0,30.26,SE,138,0.0,2.0,84,0.00,,,0.00,0,weatherlink.com 1.10,2013-03-09 10:00:00,
2013-03-09 04:15:00,30.8,27.0,30.26,SSE,147,2.0,3.0,84,0.00,,,0.00,0,weatherlink.com 1.10,2013-03-09 10:15:00,
2013-03-09 04:30:00,31.0,27.0,30.26,SE,146,1.0,4.0,84,0.00,,,0.00,0,weatherlink.com 1.10,2013-03-09 10:30:00,
2013-03-09 04:45:00,31.1,27.0,30.26,SE,134,1.0,3.0,84,0.00,,,0.00,0,weatherlink.com 1.10,2013-03-09 10:45:00,
2013-03-09 04:59:00,31.4,27.0,30.25,SE,139,2.0,4.0,84,0.00,,,0.00,0,weatherlink.com 1.10,2013-03-09 10:59:00,
2013-03-09 05:14:00,31.6,27.0,30.25,SSE,148,2.0,4.0,84,0.00,,,0.00,0,weatherlink.com 1.10,2013-03-09 11:14:00,
2013-03-09 05:29:00,31.7,27.0,30.23,SE,139,1.0,4.0,83,0.00,,,0.00,0,weatherlink.com 1.10,2013-03-09 11:29:00,
2013-03-09 05:44:00,31.9,27.0,30.23,SSE,149,2.0,4.0,83,0.00,,,0.00,0,weatherlink.com 1.10,2013-03-09 11:44:00,
2013-03-09 05:59:00,31.9,28.0,30.24,SE,146,2.0,5.0,84,0.00,,,0.00,0,weatherlink.com 1.10,2013-03-09 11:59:00,
2013-03-09 06:14:00,32.2,28.0,30.24,SSE,148,2.0,4.0,84,0.00,,,0.00,0,weatherlink.com 1.10,2013-03-09 12:14:00,
2013-03-09 06:29:00,32.4,28.0,30.23,SE,140,1.0,5.0,83,0.00,,,0.00,5,weatherlink.com 1.10,2013-03-09 12:29:00,
2013-03-09 06:45:00,32.5,28.0,30.23,SE,138,3.0,3.0,84,0.00,,,0.00,16,weatherlink.com 1.10,2013-03-09 12:45:00,
2013-03-09 07:00:00,32.6,28.0,30.22,SE,133,1.0,4.0,84,0.00,,,0.00,28,weatherlink.com 1.10,2013-03-09 13:00:00,
2013-03-09 07:15:00,32.9,28.0,30.22,SE,136,2.0,3.0,83,0.00,,,0.00,37,weatherlink.com 1.10,2013-03-09 13:15:00,
2013-03-09 07:30:00,33.1,29.0,30.22,SE,144,2.0,4.0,83,0.00,,,0.00,44,weatherlink.com 1.10,2013-03-09 13:30:00,
2013-03-09 07:45:00,33.6,29.0,30.22,SSE,148,2.0,5.0,83,0.00,,,0.00,53,weatherlink.com 1.10,2013-03-09 13:45:00,
2013-03-09 08:00:00,34.1,29.0,30.22,SSE,147,3.0,7.0,81,0.00,,,0.00,46,weatherlink.com 1.10,2013-03-09 14:00:00,
2013-03-09 08:15:00,34.4,29.0,30.22,SE,146,2.0,5.0,81,0.00,,,0.00,95,weatherlink.com 1.10,2013-03-09 14:15:00,
2013-03-09 08:30:00,34.6,30.0,30.21,South,172,2.0,6.0,83,0.00,,,0.00,113,weatherlink.com 1.10,2013-03-09 14:30:00,
2013-03-09 08:45:00,34.3,31.0,30.21,SSE,163,2.0,5.0,86,0.00,,,0.00,135,weatherlink.com 1.10,2013-03-09 14:45:00,
2013-03-09 09:00:00,34.3,31.0,30.20,SSE,149,0.0,4.0,87,0.00,,,0.00,137,weatherlink.com 1.10,2013-03-09 15:00:00,
2013-03-09 09:15:00,34.5,31.0,30.18,SE,143,1.0,4.0,88,0.01,,,0.01,178,weatherlink.com 1.10,2013-03-09 15:15:00,
2013-03-09 09:30:00,34.4,32.0,30.16,SE,141,2.0,5.0,89,0.01,,,0.01,156,weatherlink.com 1.10,2013-03-09 15:30:00,
2013-03-09 09:45:00,34.4,32.0,30.15,SE,142,1.0,5.0,91,0.02,,,0.02,209,weatherlink.com 1.10,2013-03-09 15:45:00,
2013-03-09 10:00:00,34.8,33.0,30.15,SSE,167,2.0,4.0,91,0.02,,,0.02,220,weatherlink.com 1.10,2013-03-09 16:00:00,
2013-03-09 10:15:00,35.4,33.0,30.14,SE,139,2.0,5.0,90,0.01,,,0.02,236,weatherlink.com 1.10,2013-03-09 16:15:00,
2013-03-09 10:31:00,36.1,33.0,30.12,SSE,148,4.0,5.0,88,0.01,,,0.02,348,weatherlink.com 1.10,2013-03-09 16:31:00,
2013-03-09 10:46:00,36.1,33.0,30.12,SSE,152,2.0,6.0,88,0.00,,,0.02,269,weatherlink.com 1.10,2013-03-09 16:46:00,
2013-03-09 11:01:00,36.3,33.0,30.11,SSE,156,3.0,6.0,88,0.00,,,0.02,332,weatherlink.com 1.10,2013-03-09 17:01:00,
2013-03-09 11:16:00,36.5,33.0,30.11,SE,143,2.0,5.0,87,0.00,,,0.02,336,weatherlink.com 1.10,2013-03-09 17:16:00,
2013-03-09 11:31:00,36.8,33.0,30.09,SSE,153,3.0,6.0,87,0.00,,,0.02,348,weatherlink.com 1.10,2013-03-09 17:31:00,
2013-03-09 11:46:00,37.4,33.0,30.09,SE,138,2.0,5.0,85,0.00,,,0.02,376,weatherlink.com 1.10,2013-03-09 17:46:00,
2013-03-09 12:01:00,37.8,34.0,30.09,SSE,157,2.0,5.0,85,0.00,,,0.02,330,weatherlink.com 1.10,2013-03-09 18:01:00,
2013-03-09 12:16:00,37.8,33.0,30.08,SSE,162,3.0,4.0,84,0.00,,,0.02,316,weatherlink.com 1.10,2013-03-09 18:16:00,
2013-03-09 12:31:00,38.3,34.0,30.06,SSE,148,4.0,6.0,83,0.00,,,0.02,329,weatherlink.com 1.10,2013-03-09 18:31:00,
2013-03-09 12:46:00,38.4,33.0,30.06,SSE,150,2.0,6.0,82,0.00,,,0.02,281,weatherlink.com 1.10,2013-03-09 18:46:00,
2013-03-09 13:01:00,38.6,34.0,30.05,SSE,154,3.0,6.0,82,0.00,,,0.02,332,weatherlink.com 1.10,2013-03-09 19:01:00,
2013-03-09 13:16:00,39.0,34.0,30.03,SE,142,2.0,5.0,81,0.00,,,0.02,255,weatherlink.com 1.10,2013-03-09 19:16:00,
2013-03-09 13:31:00,38.8,33.0,30.02,SSE,152,3.0,4.0,81,0.00,,,0.02,260,weatherlink.com 1.10,2013-03-09 19:31:00,
2013-03-09 13:46:00,38.8,33.0,30.01,SE,145,4.0,7.0,80,0.00,,,0.02,253,weatherlink.com 1.10,2013-03-09 19:46:00,
2013-03-09 14:01:00,38.9,33.0,30.01,SSE,155,2.0,4.0,79,0.00,,,0.02,218,weatherlink.com 1.10,2013-03-09 20:01:00,
2013-03-09 14:16:00,39.0,33.0,30.00,SSE,157,3.0,4.0,79,0.00,,,0.02,202,weatherlink.com 1.10,2013-03-09 20:16:00,
2013-03-09 14:31:00,38.8,33.0,29.99,SSE,148,2.0,5.0,79,0.00,,,0.02,139,weatherlink.com 1.10,2013-03-09 20:31:00,
2013-03-09 14:46:00,38.8,33.0,29.98,SSE,161,2.0,4.0,79,0.00,,,0.02,134,weatherlink.com 1.10,2013-03-09 20:46:00,
2013-03-09 15:01:00,38.6,33.0,29.98,SSE,157,2.0,4.0,79,0.00,,,0.02,84,weatherlink.com 1.10,2013-03-09 21:01:00,
2013-03-09 15:16:00,37.9,33.0,29.98,SE,144,3.0,5.0,83,0.01,,,0.03,67,weatherlink.com 1.10,2013-03-09 21:16:00,
2013-03-09 15:31:00,37.0,34.0,29.97,SSE,148,2.0,3.0,87,0.03,,,0.05,51,weatherlink.com 1.10,2013-03-09 21:31:00,
2013-03-09 15:46:00,36.6,34.0,29.97,SSE,158,2.0,4.0,89,0.04,,,0.06,40,weatherlink.com 1.10,2013-03-09 21:46:00,
2013-03-09 16:01:00,36.5,34.0,29.96,SSE,148,2.0,4.0,89,0.05,,,0.07,37,weatherlink.com 1.10,2013-03-09 22:01:00,
2013-03-09 16:16:00,36.3,34.0,29.96,SE,142,1.0,4.0,90,0.04,,,0.07,30,weatherlink.com 1.10,2013-03-09 22:16:00,
2013-03-09 16:31:00,36.2,34.0,29.95,SE,141,1.0,4.0,91,0.03,,,0.08,25,weatherlink.com 1.10,2013-03-09 22:31:00,
2013-03-09 16:46:00,36.2,34.0,29.94,SE,136,1.0,3.0,90,0.02,,,0.08,19,weatherlink.com 1.10,2013-03-09 22:46:00,
2013-03-09 17:01:00,36.1,34.0,29.94,SE,137,0.0,2.0,91,0.02,,,0.09,11,weatherlink.com 1.10,2013-03-09 23:01:00,
2013-03-09 17:16:00,35.6,34.0,29.94,SE,142,2.0,3.0,93,0.04,,,0.11,11,weatherlink.com 1.10,2013-03-09 23:16:00,
2013-03-09 17:32:00,35.4,34.0,29.93,SE,139,3.0,4.0,94,0.05,,,0.13,9,weatherlink.com 1.10,2013-03-09 23:32:00,
2013-03-09 17:47:00,35.2,34.0,29.92,SSE,150,2.0,3.0,94,0.06,,,0.14,0,weatherlink.com 1.10,2013-03-09 23:47:00,
2013-03-09 18:02:00,35.2,34.0,29.93,SE,142,1.0,4.0,94,0.06,,,0.15,0,weatherlink.com 1.10,2013-03-10 00:02:00,
2013-03-09 18:17:00,35.1,34.0,29.93,SE,140,0.0,3.0,94,0.06,,,0.17,0,weatherlink.com 1.10,2013-03-10 00:17:00,
2013-03-09 18:32:00,35.1,34.0,29.92,SE,136,1.0,4.0,94,0.05,,,0.18,0,weatherlink.com 1.10,2013-03-10 00:32:00,
2013-03-09 18:47:00,35.0,34.0,29.90,SE,138,0.0,3.0,95,0.06,,,0.20,0,weatherlink.com 1.10,2013-03-10 00:47:00,
2013-03-09 19:02:00,35.1,34.0,29.91,SSE,151,1.0,4.0,95,0.07,,,0.22,0,weatherlink.com 1.10,2013-03-10 01:02:00,
2013-03-09 19:17:00,35.1,34.0,29.91,SE,134,1.0,4.0,95,0.07,,,0.24,0,weatherlink.com 1.10,2013-03-10 01:17:00,
2013-03-09 19:31:00,35.1,34.0,29.92,SE,145,2.0,3.0,95,0.07,,,0.25,0,weatherlink.com 1.10,2013-03-10 01:31:00,
2013-03-09 19:46:00,35.1,34.0,29.92,SE,145,0.0,3.0,95,0.05,,,0.25,0,weatherlink.com 1.10,2013-03-10 01:46:00,
2013-03-09 20:01:00,35.1,34.0,29.92,SE,145,0.0,2.0,95,0.05,,,0.27,0,weatherlink.com 1.10,2013-03-10 02:01:00,
2013-03-09 20:16:00,35.1,34.0,29.91,SE,145,0.0,2.0,96,0.04,,,0.28,0,weatherlink.com 1.10,2013-03-10 02:16:00,
2013-03-09 20:31:00,35.0,34.0,29.92,SE,145,0.0,2.0,96,0.03,,,0.28,0,weatherlink.com 1.10,2013-03-10 02:31:00,
2013-03-09 20:46:00,35.0,34.0,29.92,SE,145,1.0,2.0,96,0.06,,,0.31,0,weatherlink.com 1.10,2013-03-10 02:46:00,
2013-03-09 21:01:00,34.9,34.0,29.92,SE,145,1.0,2.0,96,0.06,,,0.33,0,weatherlink.com 1.10,2013-03-10 03:01:00,
2013-03-09 21:16:00,34.8,34.0,29.91,SE,145,0.0,2.0,96,0.07,,,0.35,0,weatherlink.com 1.10,2013-03-10 03:16:00,
2013-03-09 21:31:00,34.8,34.0,29.91,SE,145,0.0,2.0,96,0.08,,,0.36,0,weatherlink.com 1.10,2013-03-10 03:31:00,
2013-03-09 21:46:00,34.7,34.0,29.91,SE,145,2.0,2.0,96,0.07,,,0.38,0,weatherlink.com 1.10,2013-03-10 03:46:00,
2013-03-09 22:02:00,34.7,34.0,29.90,SE,145,1.0,2.0,97,0.05,,,0.38,0,weatherlink.com 1.10,2013-03-10 04:02:00,
2013-03-09 22:17:00,35.0,34.0,29.90,SE,145,1.0,3.0,97,0.03,,,0.38,0,weatherlink.com 1.10,2013-03-10 04:17:00,
2013-03-09 22:32:00,35.4,35.0,29.89,SE,137,3.0,4.0,97,0.02,,,0.38,0,weatherlink.com 1.10,2013-03-10 04:32:00,
2013-03-09 22:47:00,35.6,35.0,29.89,SSE,158,2.0,5.0,97,0.00,,,0.38,0,weatherlink.com 1.10,2013-03-10 04:47:00,
2013-03-09 23:02:00,35.9,35.0,29.88,SSE,159,2.0,4.0,97,0.01,,,0.39,0,weatherlink.com 1.10,2013-03-10 05:02:00,
2013-03-09 23:17:00,36.0,35.0,29.87,SSE,159,1.0,4.0,97,0.02,,,0.40,0,weatherlink.com 1.10,2013-03-10 05:17:00,
2013-03-09 23:32:00,36.1,35.0,29.86,SE,145,2.0,4.0,97,0.02,,,0.40,0,weatherlink.com 1.10,2013-03-10 05:32:00,
2013-03-09 23:47:00,35.8,35.0,29.85,SE,144,2.0,3.0,96,0.03,,,0.41,0,weatherlink.com 1.10,2013-03-10 05:47:00,